createdAt,value
2019-05-02T00:02:05.717Z,4.80
2019-05-02T00:04:33.317Z,5.03
2019-05-02T00:07:07.303Z,4.43
2019-05-02T00:09:36.106Z,5.10
2019-05-02T00:12:06.615Z,4.53
2019-05-02T00:14:34.864Z,4.73
2019-05-02T00:17:02.274Z,4.27
2019-05-02T00:19:29.667Z,4.80
2019-05-02T00:21:57.607Z,3.70
2019-05-02T00:24:25.650Z,4.70
2019-05-02T00:26:56.171Z,4.73
2019-05-02T00:29:23.824Z,4.63
2019-05-02T00:31:52.021Z,5.30
2019-05-02T00:34:19.424Z,4.60
2019-05-02T00:36:46.824Z,4.37
2019-05-02T00:39:15.212Z,4.83
2019-05-02T00:41:42.692Z,5.90
2019-05-02T00:44:11.097Z,4.60
2019-05-02T00:46:39.354Z,4.77
2019-05-02T00:49:06.759Z,4.90
2019-05-02T00:51:34.154Z,5.03
2019-05-02T00:54:02.307Z,4.87
2019-05-02T00:56:29.719Z,4.90
2019-05-02T00:58:57.111Z,4.93
2019-05-02T01:01:44.343Z,4.43
2019-05-02T01:04:28.963Z,5.20
2019-05-02T01:06:57.057Z,4.83
2019-05-02T01:09:24.447Z,4.67
2019-05-02T01:11:51.843Z,4.90
2019-05-02T01:14:19.267Z,4.33
2019-05-02T01:16:49.421Z,6.00
2019-05-02T01:19:17.162Z,5.40
2019-05-02T01:21:44.804Z,4.97
2019-05-02T01:24:12.931Z,4.90
2019-05-02T01:26:45.731Z,5.00
2019-05-02T01:29:35.497Z,4.40
2019-05-02T01:32:30.154Z,4.40
2019-05-02T01:35:02.933Z,4.93
2019-05-02T01:37:50.946Z,4.70
2019-05-02T01:40:18.999Z,5.17
2019-05-02T01:42:49.001Z,5.33
2019-05-02T01:45:15.879Z,4.87
2019-05-02T01:47:43.410Z,4.90
2019-05-02T01:50:12.615Z,5.13
2019-05-02T01:52:40.011Z,5.20
2019-05-02T01:55:07.537Z,4.43
2019-05-02T01:57:34.946Z,4.73
2019-05-02T02:00:04.263Z,4.27
2019-05-02T02:02:34.055Z,3.93
2019-05-02T02:05:01.618Z,4.50
2019-05-02T02:07:29.017Z,5.40
2019-05-02T02:09:56.639Z,5.20
2019-05-02T02:12:24.039Z,5.60
2019-05-02T02:14:53.514Z,5.00
2019-05-02T02:17:20.703Z,4.87
2019-05-02T02:19:52.906Z,5.43
2019-05-02T02:22:48.776Z,5.67
2019-05-02T02:25:37.914Z,5.30
2019-05-02T02:28:06.080Z,4.57
2019-05-02T02:30:33.486Z,5.03
2019-05-02T02:33:07.717Z,5.40
2019-05-02T02:35:30.145Z,4.33
2019-05-02T02:37:57.557Z,4.33
2019-05-02T02:40:32.970Z,4.50
2019-05-02T02:42:54.312Z,4.93
2019-05-02T02:45:33.235Z,4.67
2019-05-02T02:48:02.534Z,4.97
2019-05-02T02:50:29.873Z,5.23
2019-05-02T02:52:57.259Z,4.73
2019-05-02T02:55:24.851Z,4.93
2019-05-02T02:57:52.257Z,4.60
2019-05-02T03:00:19.852Z,4.60
2019-05-02T03:02:48.659Z,4.53
2019-05-02T03:05:18.730Z,4.80
2019-05-02T03:07:45.855Z,4.57
2019-05-02T03:10:13.305Z,4.83
2019-05-02T03:13:00.222Z,4.60
2019-05-02T03:15:29.903Z,4.67
2019-05-02T03:17:59.901Z,4.90
2019-05-02T03:20:26.488Z,5.23
2019-05-02T03:22:54.261Z,4.60
2019-05-02T03:25:25.053Z,4.27
2019-05-02T03:27:52.049Z,4.73
2019-05-02T03:30:31.628Z,4.97
2019-05-02T03:33:03.559Z,4.50
2019-05-02T03:35:19.382Z,4.57
2019-05-02T03:37:51.462Z,5.23
2019-05-02T03:40:16.648Z,4.30
2019-05-02T03:42:47.247Z,4.63
2019-05-02T03:45:13.699Z,4.93
2019-05-02T03:47:43.754Z,4.43
2019-05-02T03:50:10.908Z,4.73
2019-05-02T03:52:43.512Z,4.63
2019-05-02T03:55:07.708Z,5.00
2019-05-02T03:57:36.132Z,4.30
2019-05-02T04:00:05.537Z,4.37
2019-05-02T04:02:32.941Z,3.90
2019-05-02T04:05:02.557Z,4.20
2019-05-02T04:07:39.925Z,4.73
2019-05-02T04:09:59.265Z,4.03
2019-05-02T04:12:26.656Z,4.33
2019-05-02T04:14:55.971Z,5.73
2019-05-02T04:17:28.722Z,4.90
2019-05-02T04:19:52.818Z,4.60
2019-05-02T04:22:20.872Z,4.70
2019-05-02T04:24:54.376Z,4.40
2019-05-02T04:27:18.341Z,4.40
2019-05-02T04:29:45.731Z,4.70
2019-05-02T04:32:14.507Z,5.37
2019-05-02T04:34:42.205Z,4.60
2019-05-02T04:37:09.597Z,5.20
2019-05-02T04:39:39.069Z,4.80
2019-05-02T04:42:12.971Z,5.10
2019-05-02T04:44:46.309Z,5.43
2019-05-02T04:47:10.989Z,5.23
2019-05-02T04:49:36.249Z,4.67
2019-05-02T04:52:10.419Z,4.60
2019-05-02T04:54:32.879Z,4.80
2019-05-02T04:57:02.498Z,4.80
2019-05-02T04:59:32.773Z,4.40
2019-05-02T05:02:01.307Z,4.10
2019-05-02T05:04:33.081Z,5.50
2019-05-02T05:07:00.946Z,4.27
2019-05-02T05:09:27.902Z,5.03
2019-05-02T05:11:58.958Z,5.13
2019-05-02T05:14:24.659Z,5.10
2019-05-02T05:16:55.689Z,4.30
2019-05-02T05:19:23.023Z,4.43
2019-05-02T05:21:50.616Z,5.30
2019-05-02T05:24:42.552Z,4.70
2019-05-02T05:27:13.310Z,4.30
2019-05-02T05:29:39.418Z,4.80
2019-05-02T05:32:09.842Z,4.40
2019-05-02T05:34:37.968Z,4.50
2019-05-02T05:37:09.407Z,4.50
2019-05-02T05:39:34.755Z,4.57
2019-05-02T05:42:02.172Z,4.50
2019-05-02T05:44:32.636Z,4.80
2019-05-02T05:46:58.950Z,4.20
2019-05-02T05:49:28.321Z,5.50
2019-05-02T05:52:02.294Z,4.47
2019-05-02T05:54:25.247Z,4.90
2019-05-02T05:56:52.779Z,4.57
2019-05-02T05:59:22.327Z,5.43
2019-05-02T06:01:51.593Z,5.43
2019-05-02T06:04:23.530Z,5.10
2019-05-02T06:06:48.064Z,4.93
2019-05-02T06:09:15.768Z,5.23
2019-05-02T06:11:43.171Z,4.73
2019-05-02T06:14:10.587Z,5.37
2019-05-02T06:16:38.147Z,4.70
2019-05-02T06:19:05.551Z,4.20
2019-05-02T06:21:32.947Z,3.70
2019-05-02T06:24:00.490Z,4.07
2019-05-02T06:26:28.016Z,3.90
2019-05-02T06:28:55.915Z,4.30
2019-05-02T06:31:23.834Z,3.70
2019-05-02T06:33:51.264Z,3.90
2019-05-02T06:36:18.655Z,4.30
2019-05-02T06:38:46.103Z,4.60
2019-05-02T06:41:16.221Z,4.27
2019-05-02T06:43:46.560Z,4.07
2019-05-02T06:46:16.455Z,4.33
2019-05-02T06:48:41.178Z,4.77
2019-05-02T06:51:10.970Z,4.40
2019-05-02T06:53:41.295Z,3.70
2019-05-02T06:56:07.926Z,4.07
2019-05-02T06:58:37.074Z,3.87
2019-05-02T07:01:06.025Z,3.70
2019-05-02T07:03:33.403Z,3.97
2019-05-02T07:06:02.898Z,4.50
2019-05-02T07:08:30.259Z,3.80
2019-05-02T07:11:01.231Z,4.27
2019-05-02T07:13:26.978Z,3.90
2019-05-02T07:16:03.951Z,3.80
2019-05-02T07:18:34.762Z,4.10
2019-05-02T07:21:02.170Z,3.53
2019-05-02T07:23:29.643Z,4.27
2019-05-02T07:26:00.082Z,3.80
2019-05-02T07:28:26.735Z,4.30
2019-05-02T07:30:54.886Z,3.87
2019-05-02T07:33:22.584Z,3.53
2019-05-02T07:35:49.985Z,4.07
2019-05-02T07:38:20.201Z,4.00
2019-05-02T07:40:48.142Z,4.10
2019-05-02T07:43:21.167Z,3.50
2019-05-02T07:45:46.381Z,3.67
2019-05-02T07:48:17.686Z,3.97
2019-05-02T07:50:46.491Z,4.70
2019-05-02T07:53:14.283Z,3.73
2019-05-02T07:55:42.765Z,3.90
2019-05-02T07:58:10.273Z,3.90
2019-05-02T08:00:38.498Z,3.53
2019-05-02T08:03:06.038Z,4.23
2019-05-02T08:05:35.239Z,3.87
2019-05-02T08:08:02.866Z,3.70
2019-05-02T08:10:30.271Z,3.80
2019-05-02T08:12:57.666Z,3.17
2019-05-02T08:15:25.570Z,3.77
2019-05-02T08:17:53.793Z,3.80
2019-05-02T08:20:22.170Z,3.27
2019-05-02T08:22:50.984Z,3.73
2019-05-02T08:25:19.123Z,3.50
2019-05-02T08:28:04.414Z,3.77
2019-05-02T08:30:35.457Z,3.80
2019-05-02T08:33:04.248Z,3.90
2019-05-02T08:35:31.639Z,3.40
2019-05-02T08:37:59.051Z,3.40
2019-05-02T08:40:26.522Z,3.50
2019-05-02T08:42:53.961Z,3.30
2019-05-02T08:45:21.319Z,3.20
2019-05-02T08:47:48.789Z,3.17
2019-05-02T08:50:16.166Z,3.33
2019-05-02T08:52:44.230Z,3.70
2019-05-02T08:55:12.114Z,3.37
2019-05-02T08:57:39.518Z,3.47
2019-05-02T09:00:09.064Z,3.20
2019-05-02T09:02:41.459Z,3.40
2019-05-02T09:05:06.248Z,3.13
2019-05-02T09:07:37.162Z,3.40
2019-05-02T09:10:05.731Z,3.50
2019-05-02T09:12:36.850Z,3.27
2019-05-02T09:15:02.732Z,3.87
2019-05-02T09:17:37.774Z,3.13
2019-05-02T09:20:03.459Z,4.70
2019-05-02T09:22:28.961Z,3.63
2019-05-02T09:24:56.569Z,3.73
2019-05-02T09:27:24.253Z,3.20
2019-05-02T09:29:51.920Z,3.27
2019-05-02T09:32:24.858Z,3.90
2019-05-02T09:34:48.709Z,3.20
2019-05-02T09:37:16.179Z,3.60
2019-05-02T09:39:43.747Z,3.43
2019-05-02T09:42:15.032Z,3.17
2019-05-02T09:44:42.474Z,3.73
2019-05-02T09:47:15.754Z,3.17
2019-05-02T09:49:48.914Z,3.20
2019-05-02T09:52:12.401Z,3.13
2019-05-02T09:54:42.546Z,3.70
2019-05-02T09:57:09.103Z,3.70
2019-05-02T09:59:36.511Z,3.30
2019-05-02T10:02:06.513Z,3.70
2019-05-02T10:04:33.936Z,3.70
2019-05-02T10:07:02.555Z,3.47
2019-05-02T10:09:30.159Z,3.80
2019-05-02T10:11:57.575Z,3.73
2019-05-02T10:14:24.988Z,3.70
2019-05-02T10:16:53.086Z,3.73
2019-05-02T10:19:23.961Z,4.10
2019-05-02T10:21:52.479Z,3.90
2019-05-02T10:24:19.165Z,3.83
2019-05-02T10:26:47.499Z,4.37
2019-05-02T10:29:14.991Z,3.97
2019-05-02T10:31:42.904Z,3.80
2019-05-02T10:34:16.349Z,4.63
2019-05-02T10:36:43.243Z,4.20
2019-05-02T10:39:08.835Z,3.40
2019-05-02T10:41:39.591Z,4.17
2019-05-02T10:44:05.450Z,3.50
2019-05-02T10:46:52.336Z,3.47
2019-05-02T10:49:25.413Z,3.83
2019-05-02T10:51:53.811Z,3.53
2019-05-02T10:54:23.080Z,4.40
2019-05-02T10:56:51.823Z,4.40
2019-05-02T10:59:19.592Z,4.03
2019-05-02T11:02:09.536Z,4.13
2019-05-02T11:04:42.117Z,3.90
2019-05-02T11:07:11.593Z,3.53
2019-05-02T11:09:38.843Z,3.80
2019-05-02T11:12:08.071Z,3.47
2019-05-02T11:15:06.999Z,4.13
2019-05-02T11:17:38.035Z,4.17
2019-05-02T11:20:08.274Z,4.07
2019-05-02T11:22:35.786Z,4.43
2019-05-02T11:25:04.412Z,5.00
2019-05-02T11:27:32.889Z,4.43
2019-05-02T11:30:02.567Z,4.30
2019-05-02T11:32:29.538Z,4.87
2019-05-02T11:34:57.122Z,3.43
2019-05-02T11:37:24.522Z,4.50
2019-05-02T11:39:58.919Z,4.47
2019-05-02T11:42:23.319Z,4.70
2019-05-02T11:44:52.271Z,4.40
2019-05-02T11:47:22.716Z,4.27
2019-05-02T11:49:52.072Z,4.20
2019-05-02T11:52:19.713Z,4.00
2019-05-02T11:54:48.647Z,4.57
2019-05-02T11:57:16.243Z,3.60
2019-05-02T11:59:43.634Z,4.40
2019-05-02T12:02:31.987Z,4.10
2019-05-02T12:04:59.506Z,3.87
2019-05-02T12:07:26.903Z,3.47
2019-05-02T12:09:57.044Z,3.60
2019-05-02T12:12:27.221Z,3.90
2019-05-02T12:14:54.538Z,3.67
2019-05-02T12:17:21.988Z,4.17
2019-05-02T12:19:49.370Z,4.17
2019-05-02T12:22:17.046Z,3.77
2019-05-02T12:24:45.446Z,4.70
2019-05-02T12:27:13.589Z,3.60
2019-05-02T12:29:42.371Z,4.13
2019-05-02T12:32:12.053Z,3.97
2019-05-02T12:34:39.498Z,4.33
2019-05-02T12:37:06.906Z,4.20
2019-05-02T12:39:34.414Z,3.60
2019-05-02T12:42:03.089Z,4.30
2019-05-02T12:44:31.838Z,3.60
2019-05-02T12:46:59.562Z,7.70
2019-05-02T12:49:27.986Z,4.60
2019-05-02T12:51:55.468Z,4.13
2019-05-02T12:54:23.099Z,3.53
2019-05-02T12:56:52.631Z,3.30
2019-05-02T12:59:19.719Z,6.10
2019-05-02T13:01:47.530Z,4.33
2019-05-02T13:04:14.931Z,4.70
2019-05-02T13:06:42.374Z,3.90
2019-05-02T13:09:12.681Z,4.10
2019-05-02T13:11:59.945Z,4.20
2019-05-02T13:14:31.736Z,3.83
2019-05-02T13:17:02.180Z,4.10
2019-05-02T13:19:39.751Z,3.97
2019-05-02T13:22:35.851Z,4.20
2019-05-02T13:25:10.448Z,3.67
2019-05-02T13:27:47.128Z,3.80
2019-05-02T13:30:12.440Z,3.60
2019-05-02T13:32:42.767Z,3.73
2019-05-02T13:35:22.308Z,3.60
2019-05-02T13:37:51.797Z,3.40
2019-05-02T13:40:27.338Z,3.50
2019-05-02T13:42:54.754Z,3.93
2019-05-02T13:45:38.026Z,3.40
2019-05-02T13:48:05.951Z,3.73
2019-05-02T13:50:33.379Z,4.40
2019-05-02T13:53:02.719Z,3.97
2019-05-02T13:55:36.191Z,3.63
2019-05-02T13:58:03.758Z,3.80
2019-05-02T14:00:42.485Z,3.60
2019-05-02T14:03:11.834Z,4.40
2019-05-02T14:05:42.174Z,4.03
2019-05-02T14:08:36.863Z,3.67
2019-05-02T14:11:21.592Z,3.70
2019-05-02T14:13:49.034Z,3.73
2019-05-02T14:16:16.434Z,3.30
2019-05-02T14:18:43.840Z,3.50
2019-05-02T14:21:12.611Z,3.90
2019-05-02T14:23:41.918Z,3.90
2019-05-02T14:26:09.301Z,3.55
2019-05-02T14:28:37.119Z,3.47
2019-05-02T14:31:05.010Z,3.37
2019-05-02T14:33:34.238Z,3.70
2019-05-02T14:36:01.871Z,3.67
2019-05-02T14:38:29.287Z,3.40
2019-05-02T14:41:12.436Z,3.40
2019-05-02T14:43:53.909Z,3.30
2019-05-02T14:46:28.914Z,3.50
2019-05-02T14:48:54.272Z,3.47
2019-05-02T14:51:27.440Z,3.20
2019-05-02T14:53:52.637Z,2.90
2019-05-02T14:56:47.550Z,3.70
2019-05-02T14:59:17.859Z,3.30
2019-05-02T15:01:43.506Z,3.27
2019-05-02T15:04:12.818Z,3.20
2019-05-02T15:06:43.513Z,3.90
2019-05-02T15:09:11.930Z,3.37
2019-05-02T15:11:57.338Z,3.17
2019-05-02T15:14:28.882Z,3.47
2019-05-02T15:16:58.360Z,3.17
2019-05-02T15:19:25.859Z,3.33
2019-05-02T15:21:56.020Z,2.97
2019-05-02T15:24:23.084Z,3.40
2019-05-02T15:26:52.474Z,3.30
2019-05-02T15:29:25.141Z,3.63
2019-05-02T15:32:03.256Z,3.40
2019-05-02T15:34:52.513Z,2.97
2019-05-02T15:37:22.159Z,3.40
2019-05-02T15:42:22.882Z,3.20
2019-05-02T15:44:47.953Z,3.13
2019-05-02T15:47:15.345Z,3.43
2019-05-02T15:49:45.727Z,3.40
2019-05-02T15:52:18.982Z,3.43
2019-05-02T15:54:45.530Z,3.30
2019-05-02T15:57:18.504Z,4.00
2019-05-02T15:59:46.179Z,3.13
2019-05-02T16:02:17.716Z,2.60
2019-05-02T16:04:44.943Z,3.27
2019-05-02T16:07:12.481Z,2.83
2019-05-02T16:09:41.660Z,3.40
2019-05-02T16:12:09.189Z,3.77
2019-05-02T16:14:36.654Z,3.37
2019-05-02T16:17:04.491Z,4.60
2019-05-02T16:19:34.494Z,3.50
2019-05-02T16:22:27.251Z,4.00
2019-05-02T16:24:56.642Z,3.30
2019-05-02T16:27:42.106Z,3.43
2019-05-02T16:30:11.435Z,3.13
2019-05-02T16:32:54.277Z,3.60
2019-05-02T16:35:22.994Z,3.83
2019-05-02T16:37:52.338Z,3.90
2019-05-02T16:40:22.048Z,3.40
2019-05-02T16:42:51.712Z,3.27
2019-05-02T16:45:19.138Z,3.80
2019-05-02T16:47:49.762Z,3.53
2019-05-02T16:50:18.668Z,3.70
2019-05-02T16:52:47.471Z,4.50
2019-05-02T16:55:21.176Z,3.90
2019-05-02T16:57:45.210Z,3.50
2019-05-02T17:00:16.162Z,3.73
2019-05-02T17:02:46.255Z,3.17
2019-05-02T17:05:13.159Z,3.60
2019-05-02T17:07:55.875Z,3.67
2019-05-02T17:10:27.741Z,3.47
2019-05-02T17:12:57.649Z,3.90
2019-05-02T17:15:34.985Z,3.53
2019-05-02T17:18:04.871Z,3.17
2019-05-02T17:20:31.801Z,3.10
2019-05-02T17:23:05.149Z,3.13
2019-05-02T17:25:29.016Z,3.77
2019-05-02T17:28:01.690Z,2.73
2019-05-02T17:30:25.959Z,2.83
2019-05-02T17:32:53.762Z,3.00
2019-05-02T17:35:22.112Z,2.87
2019-05-02T17:37:50.459Z,2.83
2019-05-02T17:40:22.568Z,2.60
2019-05-02T17:42:48.766Z,2.83
2019-05-02T17:45:16.671Z,3.33
2019-05-02T17:47:44.092Z,3.93
2019-05-02T17:50:22.057Z,2.93
2019-05-02T17:52:56.130Z,4.10
2019-05-02T17:55:21.552Z,3.07
2019-05-02T17:57:49.041Z,3.30
2019-05-02T18:00:21.604Z,3.10
2019-05-02T18:02:51.777Z,3.53
2019-05-02T18:05:18.298Z,4.10
2019-05-02T18:07:45.789Z,3.43
2019-05-02T18:10:18.380Z,4.53
2019-05-02T18:12:42.947Z,5.60
2019-05-02T18:15:12.020Z,4.50
2019-05-02T18:17:39.521Z,3.77
2019-05-02T18:20:07.645Z,3.50
2019-05-02T18:22:39.593Z,4.40
2019-05-02T18:25:04.671Z,4.67
2019-05-02T18:27:32.134Z,4.30
2019-05-02T18:30:00.266Z,3.77
2019-05-02T18:32:29.466Z,4.20
2019-05-02T18:35:02.487Z,3.60
2019-05-02T18:37:26.344Z,3.70
2019-05-02T18:39:56.002Z,3.53
2019-05-02T18:42:25.517Z,4.10
2019-05-02T18:44:54.424Z,5.07
2019-05-02T18:47:24.804Z,9.07
2019-05-02T18:49:53.809Z,6.67
2019-05-02T18:52:22.628Z,4.77
2019-05-02T18:54:51.665Z,4.30
2019-05-02T18:57:24.399Z,4.50
2019-05-02T18:59:51.993Z,4.15
2019-05-02T19:02:18.066Z,3.67
2019-05-02T19:04:45.471Z,3.93
2019-05-02T19:07:15.858Z,3.47
2019-05-02T19:09:49.809Z,3.53
2019-05-02T19:12:19.346Z,3.37
2019-05-02T19:14:42.003Z,3.90
2019-05-02T19:17:09.872Z,4.37
2019-05-02T19:19:37.326Z,4.53
2019-05-02T19:22:07.456Z,3.97
2019-05-02T19:24:36.446Z,3.63
2019-05-02T19:27:03.482Z,3.50
2019-05-02T19:29:32.084Z,3.50
2019-05-02T19:31:59.530Z,3.13
2019-05-02T19:34:27.178Z,3.17
2019-05-02T19:36:58.063Z,4.03
2019-05-02T19:39:27.682Z,3.67
2019-05-02T19:41:55.080Z,4.33
2019-05-02T19:44:29.108Z,4.93
2019-05-02T19:46:52.160Z,5.50
2019-05-02T19:49:22.397Z,6.13
2019-05-02T19:51:55.727Z,7.90
2019-05-02T19:54:21.897Z,7.93
2019-05-02T19:56:49.335Z,9.60
2019-05-02T19:59:21.847Z,7.17
2019-05-02T20:01:46.035Z,8.50
2019-05-02T20:04:13.527Z,7.67
2019-05-02T20:06:41.824Z,6.17
2019-05-02T20:09:09.484Z,6.40
2019-05-02T20:11:36.970Z,5.60
2019-05-02T20:14:09.293Z,6.03
2019-05-02T20:16:45.845Z,6.20
2019-05-02T20:19:12.557Z,5.07
2019-05-02T20:21:57.263Z,5.00
2019-05-02T20:24:44.507Z,5.27
2019-05-02T20:27:12.309Z,5.30
2019-05-02T20:29:39.759Z,4.60
2019-05-02T20:32:07.453Z,4.60
2019-05-02T20:34:35.146Z,6.63
2019-05-02T20:37:02.804Z,9.00
2019-05-02T20:39:31.783Z,9.53
2019-05-02T20:41:59.626Z,8.13
2019-05-02T20:44:27.026Z,9.83
2019-05-02T20:46:54.427Z,9.30
2019-05-02T20:49:21.887Z,8.47
2019-05-02T20:51:49.283Z,8.10
2019-05-02T20:54:16.682Z,6.23
2019-05-02T20:56:44.399Z,4.83
2019-05-02T20:59:12.703Z,5.07
2019-05-02T21:01:40.386Z,4.43
2019-05-02T21:04:07.831Z,4.70
2019-05-02T21:07:03.306Z,4.90
2019-05-02T21:09:41.948Z,5.10
2019-05-02T21:12:12.608Z,4.40
2019-05-02T21:14:41.585Z,5.10
2019-05-02T21:17:09.122Z,5.27
2019-05-02T21:19:36.519Z,4.70
2019-05-02T21:22:09.251Z,5.23
2019-05-02T21:24:36.715Z,5.53
2019-05-02T21:27:04.138Z,4.60
2019-05-02T21:29:32.140Z,4.57
2019-05-02T21:31:59.682Z,5.47
2019-05-02T21:34:27.423Z,4.60
2019-05-02T21:36:54.818Z,4.87
2019-05-02T21:39:22.739Z,5.23
2019-05-02T21:41:51.696Z,4.67
2019-05-02T21:44:19.135Z,4.47
2019-05-02T21:46:46.770Z,4.30
2019-05-02T21:49:16.149Z,4.70
2019-05-02T21:52:06.119Z,5.20
2019-05-02T21:54:41.770Z,4.37
2019-05-02T21:57:14.820Z,3.40
2019-05-02T21:59:42.215Z,4.43
2019-05-02T22:02:11.930Z,5.50
2019-05-02T22:04:39.738Z,5.97
2019-05-02T22:07:07.123Z,6.40
2019-05-02T22:09:35.194Z,6.30
2019-05-02T22:12:02.831Z,7.00
2019-05-02T22:14:30.247Z,6.80
2019-05-02T22:16:57.639Z,6.23
2019-05-02T22:19:25.071Z,5.40
2019-05-02T22:21:52.669Z,7.07
2019-05-02T22:24:20.171Z,5.60
2019-05-02T22:26:47.698Z,5.30
2019-05-02T22:29:15.107Z,4.30
2019-05-02T22:31:43.042Z,4.93
2019-05-02T22:34:12.644Z,4.90
2019-05-02T22:36:40.126Z,4.70
2019-05-02T22:39:22.067Z,5.33
2019-05-02T22:41:50.034Z,4.63
2019-05-02T22:44:17.435Z,4.83
2019-05-02T22:46:46.231Z,4.43
2019-05-02T22:49:15.234Z,3.53
2019-05-02T22:51:42.907Z,4.43
2019-05-02T22:54:23.390Z,4.87
2019-05-02T22:56:39.707Z,4.73
2019-05-02T22:59:07.098Z,4.90
2019-05-02T23:01:34.774Z,5.27
2019-05-02T23:04:02.191Z,5.53
2019-05-02T23:06:29.586Z,4.90
2019-05-02T23:08:57.291Z,4.00
2019-05-02T23:11:24.688Z,4.83
2019-05-02T23:13:52.074Z,5.30
2019-05-02T23:16:19.975Z,4.07
2019-05-02T23:18:47.378Z,4.40
2019-05-02T23:21:14.768Z,4.93
2019-05-02T23:23:42.178Z,6.20
2019-05-02T23:26:16.151Z,4.90
2019-05-02T23:28:46.498Z,4.47
2019-05-02T23:31:14.029Z,4.87
2019-05-02T23:33:57.592Z,4.60
2019-05-02T23:36:29.891Z,4.50
2019-05-02T23:38:57.553Z,4.63
2019-05-02T23:41:25.010Z,4.23
2019-05-02T23:43:52.517Z,4.73
2019-05-02T23:46:22.235Z,5.60
2019-05-02T23:48:49.935Z,5.67
2019-05-02T23:51:17.330Z,4.80
2019-05-02T23:53:44.623Z,5.40
2019-05-02T23:56:13.163Z,5.20
2019-05-02T23:58:42.511Z,5.30
